sensor_id;sensor_type;location;lat;lon;timestamp;P1;durP1;ratioP1;P2;durP2;ratioP2
65737;SDS011;52478;51.844;6.582;2023-10-08T00:04:08;11.27;;;4.40;;
65737;SDS011;52478;51.844;6.582;2023-10-08T00:06:36;12.75;;;4.03;;
65737;SDS011;52478;51.844;6.582;2023-10-08T00:09:04;12.70;;;4.22;;
65737;SDS011;52478;51.844;6.582;2023-10-08T00:11:34;10.82;;;4.40;;
65737;SDS011;52478;51.844;6.582;2023-10-08T00:14:01;12.57;;;4.18;;
65737;SDS011;52478;51.844;6.582;2023-10-08T00:16:30;11.30;;;3.72;;
65737;SDS011;52478;51.844;6.582;2023-10-08T00:18:58;11.90;;;3.60;;
65737;SDS011;52478;51.844;6.582;2023-10-08T00:21:34;11.95;;;4.13;;
65737;SDS011;52478;51.844;6.582;2023-10-08T00:24:02;12.48;;;4.30;;
65737;SDS011;52478;51.844;6.582;2023-10-08T00:26:31;10.82;;;3.85;;
65737;SDS011;52478;51.844;6.582;2023-10-08T00:29:01;14.65;;;4.38;;
65737;SDS011;52478;51.844;6.582;2023-10-08T00:31:31;14.02;;;4.32;;
65737;SDS011;52478;51.844;6.582;2023-10-08T00:34:03;12.25;;;4.65;;
65737;SDS011;52478;51.844;6.582;2023-10-08T00:36:31;12.45;;;4.35;;
65737;SDS011;52478;51.844;6.582;2023-10-08T00:39:00;10.55;;;4.20;;
65737;SDS011;52478;51.844;6.582;2023-10-08T00:41:33;13.35;;;3.88;;
65737;SDS011;52478;51.844;6.582;2023-10-08T00:43:59;11.73;;;3.97;;
65737;SDS011;52478;51.844;6.582;2023-10-08T00:46:26;12.13;;;4.13;;
65737;SDS011;52478;51.844;6.582;2023-10-08T00:48:56;13.55;;;4.68;;
65737;SDS011;52478;51.844;6.582;2023-10-08T00:51:24;15.02;;;4.05;;
65737;SDS011;52478;51.844;6.582;2023-10-08T00:53:54;12.10;;;4.40;;
65737;SDS011;52478;51.844;6.582;2023-10-08T00:56:26;13.40;;;4.70;;
65737;SDS011;52478;51.844;6.582;2023-10-08T00:59:11;14.77;;;4.20;;
65737;SDS011;52478;51.844;6.582;2023-10-08T01:01:40;10.55;;;4.30;;
65737;SDS011;52478;51.844;6.582;2023-10-08T01:04:10;12.50;;;4.22;;
65737;SDS011;52478;51.844;6.582;2023-10-08T01:06:41;12.32;;;4.22;;
65737;SDS011;52478;51.844;6.582;2023-10-08T01:09:08;14.35;;;4.32;;
65737;SDS011;52478;51.844;6.582;2023-10-08T01:11:44;12.55;;;3.92;;
65737;SDS011;52478;51.844;6.582;2023-10-08T01:14:14;12.27;;;4.00;;
65737;SDS011;52478;51.844;6.582;2023-10-08T01:16:41;13.00;;;3.53;;
65737;SDS011;52478;51.844;6.582;2023-10-08T01:19:11;15.88;;;4.30;;
65737;SDS011;52478;51.844;6.582;2023-10-08T01:21:38;12.57;;;4.07;;
65737;SDS011;52478;51.844;6.582;2023-10-08T01:24:07;14.30;;;4.50;;
65737;SDS011;52478;51.844;6.582;2023-10-08T01:26:39;12.57;;;3.85;;
65737;SDS011;52478;51.844;6.582;2023-10-08T01:29:08;16.25;;;4.80;;
65737;SDS011;52478;51.844;6.582;2023-10-08T01:31:43;14.80;;;5.05;;
65737;SDS011;52478;51.844;6.582;2023-10-08T01:34:10;10.82;;;4.18;;
65737;SDS011;52478;51.844;6.582;2023-10-08T01:36:41;13.57;;;4.10;;
65737;SDS011;52478;51.844;6.582;2023-10-08T01:39:10;12.30;;;4.18;;
65737;SDS011;52478;51.844;6.582;2023-10-08T01:41:41;9.55;;;3.95;;
65737;SDS011;52478;51.844;6.582;2023-10-08T01:44:08;13.43;;;3.88;;
65737;SDS011;52478;51.844;6.582;2023-10-08T01:46:35;10.55;;;3.78;;
65737;SDS011;52478;51.844;6.582;2023-10-08T01:49:05;12.95;;;4.55;;
65737;SDS011;52478;51.844;6.582;2023-10-08T01:51:38;12.05;;;4.22;;
65737;SDS011;52478;51.844;6.582;2023-10-08T01:54:12;11.55;;;4.43;;
65737;SDS011;52478;51.844;6.582;2023-10-08T01:56:42;11.27;;;4.10;;
65737;SDS011;52478;51.844;6.582;2023-10-08T01:59:09;11.93;;;4.05;;
65737;SDS011;52478;51.844;6.582;2023-10-08T02:01:36;12.15;;;4.50;;
65737;SDS011;52478;51.844;6.582;2023-10-08T02:04:04;14.07;;;4.20;;
65737;SDS011;52478;51.844;6.582;2023-10-08T02:06:32;10.93;;;4.35;;
65737;SDS011;52478;51.844;6.582;2023-10-08T02:08:59;12.20;;;4.38;;
65737;SDS011;52478;51.844;6.582;2023-10-08T02:11:40;10.27;;;3.88;;
65737;SDS011;52478;51.844;6.582;2023-10-08T02:14:08;12.50;;;4.25;;
65737;SDS011;52478;51.844;6.582;2023-10-08T02:16:36;10.85;;;4.65;;
65737;SDS011;52478;51.844;6.582;2023-10-08T02:19:03;13.75;;;4.13;;
65737;SDS011;52478;51.844;6.582;2023-10-08T02:21:29;13.88;;;4.53;;
65737;SDS011;52478;51.844;6.582;2023-10-08T02:23:58;10.35;;;3.95;;
65737;SDS011;52478;51.844;6.582;2023-10-08T02:26:25;12.70;;;4.80;;
65737;SDS011;52478;51.844;6.582;2023-10-08T02:28:52;11.85;;;4.07;;
65737;SDS011;52478;51.844;6.582;2023-10-08T02:31:19;15.77;;;4.68;;
65737;SDS011;52478;51.844;6.582;2023-10-08T02:33:45;11.25;;;4.43;;
65737;SDS011;52478;51.844;6.582;2023-10-08T02:36:12;10.88;;;4.53;;
65737;SDS011;52478;51.844;6.582;2023-10-08T02:38:39;10.98;;;4.18;;
65737;SDS011;52478;51.844;6.582;2023-10-08T02:41:05;13.48;;;4.65;;
65737;SDS011;52478;51.844;6.582;2023-10-08T02:43:33;12.65;;;4.00;;
65737;SDS011;52478;51.844;6.582;2023-10-08T02:46:02;13.43;;;4.47;;
65737;SDS011;52478;51.844;6.582;2023-10-08T02:48:32;10.77;;;4.03;;
65737;SDS011;52478;51.844;6.582;2023-10-08T02:50:59;10.73;;;3.88;;
65737;SDS011;52478;51.844;6.582;2023-10-08T02:56:07;10.73;;;4.07;;
65737;SDS011;52478;51.844;6.582;2023-10-08T02:58:38;11.27;;;4.40;;
65737;SDS011;52478;51.844;6.582;2023-10-08T03:01:07;13.15;;;4.20;;
65737;SDS011;52478;51.844;6.582;2023-10-08T03:03:37;11.10;;;4.45;;
65737;SDS011;52478;51.844;6.582;2023-10-08T03:06:05;14.40;;;4.30;;
65737;SDS011;52478;51.844;6.582;2023-10-08T03:08:36;13.13;;;3.97;;
65737;SDS011;52478;51.844;6.582;2023-10-08T03:11:05;13.70;;;4.07;;
65737;SDS011;52478;51.844;6.582;2023-10-08T03:13:31;12.00;;;4.15;;
65737;SDS011;52478;51.844;6.582;2023-10-08T03:16:03;12.68;;;4.13;;
65737;SDS011;52478;51.844;6.582;2023-10-08T03:18:36;10.13;;;3.95;;
65737;SDS011;52478;51.844;6.582;2023-10-08T03:21:08;12.07;;;4.18;;
65737;SDS011;52478;51.844;6.582;2023-10-08T03:23:45;13.23;;;3.85;;
65737;SDS011;52478;51.844;6.582;2023-10-08T03:26:12;15.35;;;4.78;;
65737;SDS011;52478;51.844;6.582;2023-10-08T03:28:57;15.57;;;5.00;;
65737;SDS011;52478;51.844;6.582;2023-10-08T03:31:25;13.45;;;4.30;;
65737;SDS011;52478;51.844;6.582;2023-10-08T03:34:11;11.35;;;4.93;;
65737;SDS011;52478;51.844;6.582;2023-10-08T03:36:40;14.07;;;4.35;;
65737;SDS011;52478;51.844;6.582;2023-10-08T03:39:09;12.57;;;4.10;;
65737;SDS011;52478;51.844;6.582;2023-10-08T03:41:38;10.82;;;4.30;;
65737;SDS011;52478;51.844;6.582;2023-10-08T03:44:06;14.07;;;5.22;;
65737;SDS011;52478;51.844;6.582;2023-10-08T03:46:38;11.43;;;4.60;;
65737;SDS011;52478;51.844;6.582;2023-10-08T03:49:07;10.63;;;4.10;;
65737;SDS011;52478;51.844;6.582;2023-10-08T03:51:41;12.38;;;4.82;;
65737;SDS011;52478;51.844;6.582;2023-10-08T03:54:08;11.93;;;4.85;;
65737;SDS011;52478;51.844;6.582;2023-10-08T03:56:42;10.80;;;4.40;;
65737;SDS011;52478;51.844;6.582;2023-10-08T03:59:11;12.00;;;4.53;;
65737;SDS011;52478;51.844;6.582;2023-10-08T04:01:39;11.80;;;4.80;;
65737;SDS011;52478;51.844;6.582;2023-10-08T04:04:06;12.70;;;5.10;;
65737;SDS011;52478;51.844;6.582;2023-10-08T04:06:37;12.82;;;5.18;;
65737;SDS011;52478;51.844;6.582;2023-10-08T04:09:05;12.15;;;4.82;;
65737;SDS011;52478;51.844;6.582;2023-10-08T04:11:41;12.40;;;4.70;;
65737;SDS011;52478;51.844;6.582;2023-10-08T04:14:17;13.07;;;4.50;;
65737;SDS011;52478;51.844;6.582;2023-10-08T04:16:44;11.00;;;5.03;;
65737;SDS011;52478;51.844;6.582;2023-10-08T04:19:11;13.60;;;5.18;;
65737;SDS011;52478;51.844;6.582;2023-10-08T04:21:38;13.68;;;5.03;;
65737;SDS011;52478;51.844;6.582;2023-10-08T04:24:09;12.18;;;5.38;;
65737;SDS011;52478;51.844;6.582;2023-10-08T04:26:39;13.93;;;4.88;;
65737;SDS011;52478;51.844;6.582;2023-10-08T04:29:07;10.75;;;4.95;;
65737;SDS011;52478;51.844;6.582;2023-10-08T04:31:34;12.68;;;4.32;;
65737;SDS011;52478;51.844;6.582;2023-10-08T04:34:03;14.15;;;4.95;;
65737;SDS011;52478;51.844;6.582;2023-10-08T04:36:41;10.57;;;4.30;;
65737;SDS011;52478;51.844;6.582;2023-10-08T04:39:11;12.20;;;4.43;;
65737;SDS011;52478;51.844;6.582;2023-10-08T04:41:41;14.23;;;4.65;;
65737;SDS011;52478;51.844;6.582;2023-10-08T04:44:09;10.43;;;4.88;;
65737;SDS011;52478;51.844;6.582;2023-10-08T04:46:39;11.38;;;4.75;;
65737;SDS011;52478;51.844;6.582;2023-10-08T04:49:13;11.15;;;4.38;;
65737;SDS011;52478;51.844;6.582;2023-10-08T04:51:51;10.18;;;4.22;;
65737;SDS011;52478;51.844;6.582;2023-10-08T04:54:23;12.13;;;4.32;;
65737;SDS011;52478;51.844;6.582;2023-10-08T04:56:54;9.57;;;4.10;;
65737;SDS011;52478;51.844;6.582;2023-10-08T04:59:23;11.63;;;4.78;;
65737;SDS011;52478;51.844;6.582;2023-10-08T05:01:57;11.43;;;3.97;;
65737;SDS011;52478;51.844;6.582;2023-10-08T05:04:37;11.60;;;3.80;;
65737;SDS011;52478;51.844;6.582;2023-10-08T05:07:21;8.90;;;3.35;;
65737;SDS011;52478;51.844;6.582;2023-10-08T05:10:07;9.93;;;3.20;;
65737;SDS011;52478;51.844;6.582;2023-10-08T05:12:42;11.25;;;3.17;;
65737;SDS011;52478;51.844;6.582;2023-10-08T05:17:58;8.82;;;3.20;;
65737;SDS011;52478;51.844;6.582;2023-10-08T05:20:38;10.63;;;3.03;;
65737;SDS011;52478;51.844;6.582;2023-10-08T05:23:24;11.27;;;2.95;;
65737;SDS011;52478;51.844;6.582;2023-10-08T05:26:06;7.15;;;2.50;;
65737;SDS011;52478;51.844;6.582;2023-10-08T05:28:45;8.50;;;2.70;;
65737;SDS011;52478;51.844;6.582;2023-10-08T05:31:13;8.98;;;2.85;;
65737;SDS011;52478;51.844;6.582;2023-10-08T05:34:01;10.48;;;3.00;;
65737;SDS011;52478;51.844;6.582;2023-10-08T05:36:40;10.25;;;2.70;;
65737;SDS011;52478;51.844;6.582;2023-10-08T05:42:06;9.73;;;2.63;;
65737;SDS011;52478;51.844;6.582;2023-10-08T05:44:38;8.65;;;2.83;;
65737;SDS011;52478;51.844;6.582;2023-10-08T05:47:08;12.52;;;3.17;;
65737;SDS011;52478;51.844;6.582;2023-10-08T05:50:03;8.00;;;2.90;;
65737;SDS011;52478;51.844;6.582;2023-10-08T05:52:48;8.93;;;2.85;;
65737;SDS011;52478;51.844;6.582;2023-10-08T05:55:28;9.20;;;3.22;;
65737;SDS011;52478;51.844;6.582;2023-10-08T05:58:02;7.95;;;3.00;;
65737;SDS011;52478;51.844;6.582;2023-10-08T06:00:40;8.77;;;3.00;;
65737;SDS011;52478;51.844;6.582;2023-10-08T06:03:29;9.48;;;2.83;;
65737;SDS011;52478;51.844;6.582;2023-10-08T06:06:02;8.10;;;2.92;;
65737;SDS011;52478;51.844;6.582;2023-10-08T06:08:51;9.02;;;2.65;;
65737;SDS011;52478;51.844;6.582;2023-10-08T06:11:46;10.10;;;2.75;;
65737;SDS011;52478;51.844;6.582;2023-10-08T06:14:34;7.03;;;2.63;;
65737;SDS011;52478;51.844;6.582;2023-10-08T06:17:20;7.85;;;2.08;;
65737;SDS011;52478;51.844;6.582;2023-10-08T06:19:59;8.65;;;2.13;;
65737;SDS011;52478;51.844;6.582;2023-10-08T06:22:26;9.20;;;2.25;;
65737;SDS011;52478;51.844;6.582;2023-10-08T06:24:53;9.63;;;2.05;;
65737;SDS011;52478;51.844;6.582;2023-10-08T06:27:39;7.47;;;2.15;;
65737;SDS011;52478;51.844;6.582;2023-10-08T06:30:08;6.82;;;2.45;;
65737;SDS011;52478;51.844;6.582;2023-10-08T06:32:41;6.75;;;2.35;;
65737;SDS011;52478;51.844;6.582;2023-10-08T06:35:09;7.50;;;2.53;;
65737;SDS011;52478;51.844;6.582;2023-10-08T06:37:42;7.88;;;2.42;;
65737;SDS011;52478;51.844;6.582;2023-10-08T06:40:10;6.95;;;2.30;;
65737;SDS011;52478;51.844;6.582;2023-10-08T06:42:58;8.95;;;2.75;;
65737;SDS011;52478;51.844;6.582;2023-10-08T06:45:30;7.05;;;1.80;;
65737;SDS011;52478;51.844;6.582;2023-10-08T06:47:58;5.90;;;2.22;;
65737;SDS011;52478;51.844;6.582;2023-10-08T06:50:31;6.88;;;2.13;;
65737;SDS011;52478;51.844;6.582;2023-10-08T06:52:59;8.07;;;2.22;;
65737;SDS011;52478;51.844;6.582;2023-10-08T06:55:31;7.80;;;2.25;;
65737;SDS011;52478;51.844;6.582;2023-10-08T06:57:58;7.63;;;1.90;;
65737;SDS011;52478;51.844;6.582;2023-10-08T07:00:26;6.65;;;1.85;;
65737;SDS011;52478;51.844;6.582;2023-10-08T07:03:04;7.88;;;2.00;;
65737;SDS011;52478;51.844;6.582;2023-10-08T07:05:33;5.82;;;1.70;;
65737;SDS011;52478;51.844;6.582;2023-10-08T07:08:01;5.70;;;1.60;;
65737;SDS011;52478;51.844;6.582;2023-10-08T07:10:31;9.18;;;1.70;;
65737;SDS011;52478;51.844;6.582;2023-10-08T07:12:59;5.35;;;1.60;;
65737;SDS011;52478;51.844;6.582;2023-10-08T07:15:27;6.68;;;1.55;;
65737;SDS011;52478;51.844;6.582;2023-10-08T07:17:55;5.10;;;1.50;;
65737;SDS011;52478;51.844;6.582;2023-10-08T07:20:23;4.75;;;1.25;;
65737;SDS011;52478;51.844;6.582;2023-10-08T07:22:50;7.20;;;1.60;;
65737;SDS011;52478;51.844;6.582;2023-10-08T07:25:19;4.72;;;1.30;;
65737;SDS011;52478;51.844;6.582;2023-10-08T07:27:47;5.43;;;1.40;;
65737;SDS011;52478;51.844;6.582;2023-10-08T07:30:14;5.63;;;1.48;;
65737;SDS011;52478;51.844;6.582;2023-10-08T07:32:52;6.60;;;1.50;;
65737;SDS011;52478;51.844;6.582;2023-10-08T07:35:19;5.97;;;1.33;;
65737;SDS011;52478;51.844;6.582;2023-10-08T07:37:53;4.40;;;1.30;;
65737;SDS011;52478;51.844;6.582;2023-10-08T07:40:20;4.38;;;1.20;;
65737;SDS011;52478;51.844;6.582;2023-10-08T07:42:52;5.45;;;1.45;;
65737;SDS011;52478;51.844;6.582;2023-10-08T07:45:19;5.38;;;1.20;;
65737;SDS011;52478;51.844;6.582;2023-10-08T07:47:46;5.53;;;1.50;;
65737;SDS011;52478;51.844;6.582;2023-10-08T07:50:13;6.00;;;1.40;;
65737;SDS011;52478;51.844;6.582;2023-10-08T07:52:41;6.22;;;1.60;;
65737;SDS011;52478;51.844;6.582;2023-10-08T07:55:10;5.13;;;1.45;;
65737;SDS011;52478;51.844;6.582;2023-10-08T07:57:42;5.13;;;1.63;;
65737;SDS011;52478;51.844;6.582;2023-10-08T08:00:10;4.65;;;1.48;;
65737;SDS011;52478;51.844;6.582;2023-10-08T08:02:47;5.50;;;1.50;;
65737;SDS011;52478;51.844;6.582;2023-10-08T08:05:14;5.35;;;1.45;;
65737;SDS011;52478;51.844;6.582;2023-10-08T08:07:42;4.50;;;1.20;;
65737;SDS011;52478;51.844;6.582;2023-10-08T08:10:12;5.43;;;1.30;;
65737;SDS011;52478;51.844;6.582;2023-10-08T08:12:39;5.70;;;1.40;;
65737;SDS011;52478;51.844;6.582;2023-10-08T08:15:06;5.25;;;1.65;;
65737;SDS011;52478;51.844;6.582;2023-10-08T08:17:40;5.28;;;1.83;;
65737;SDS011;52478;51.844;6.582;2023-10-08T08:20:07;5.75;;;1.70;;
65737;SDS011;52478;51.844;6.582;2023-10-08T08:22:42;7.30;;;2.10;;
65737;SDS011;52478;51.844;6.582;2023-10-08T08:25:16;6.15;;;1.35;;
65737;SDS011;52478;51.844;6.582;2023-10-08T08:27:51;6.55;;;1.30;;
65737;SDS011;52478;51.844;6.582;2023-10-08T08:30:18;9.88;;;1.25;;
65737;SDS011;52478;51.844;6.582;2023-10-08T08:35:13;3.30;;;1.00;;
65737;SDS011;52478;51.844;6.582;2023-10-08T08:37:41;3.17;;;0.90;;
65737;SDS011;52478;51.844;6.582;2023-10-08T08:40:08;4.43;;;1.05;;
65737;SDS011;52478;51.844;6.582;2023-10-08T08:42:43;7.03;;;1.00;;
65737;SDS011;52478;51.844;6.582;2023-10-08T08:45:12;4.03;;;1.02;;
65737;SDS011;52478;51.844;6.582;2023-10-08T08:47:40;3.92;;;0.90;;
65737;SDS011;52478;51.844;6.582;2023-10-08T08:50:07;2.83;;;0.82;;
65737;SDS011;52478;51.844;6.582;2023-10-08T08:52:34;5.03;;;0.93;;
65737;SDS011;52478;51.844;6.582;2023-10-08T08:55:02;3.95;;;0.93;;
65737;SDS011;52478;51.844;6.582;2023-10-08T08:57:31;2.28;;;0.80;;
65737;SDS011;52478;51.844;6.582;2023-10-08T09:00:00;3.63;;;0.82;;
65737;SDS011;52478;51.844;6.582;2023-10-08T09:02:33;5.22;;;1.35;;
65737;SDS011;52478;51.844;6.582;2023-10-08T09:05:01;5.07;;;1.20;;
65737;SDS011;52478;51.844;6.582;2023-10-08T09:07:50;3.42;;;0.98;;
65737;SDS011;52478;51.844;6.582;2023-10-08T09:10:19;5.38;;;1.17;;
65737;SDS011;52478;51.844;6.582;2023-10-08T09:12:51;3.13;;;1.00;;
65737;SDS011;52478;51.844;6.582;2023-10-08T09:15:19;3.70;;;1.08;;
65737;SDS011;52478;51.844;6.582;2023-10-08T09:17:47;3.67;;;1.02;;
65737;SDS011;52478;51.844;6.582;2023-10-08T09:20:14;3.78;;;0.90;;
65737;SDS011;52478;51.844;6.582;2023-10-08T09:22:40;5.40;;;1.02;;
65737;SDS011;52478;51.844;6.582;2023-10-08T09:25:07;4.40;;;1.00;;
65737;SDS011;52478;51.844;6.582;2023-10-08T09:27:35;4.00;;;0.90;;
65737;SDS011;52478;51.844;6.582;2023-10-08T09:30:03;4.15;;;1.10;;
65737;SDS011;52478;51.844;6.582;2023-10-08T09:32:34;5.70;;;1.40;;
65737;SDS011;52478;51.844;6.582;2023-10-08T09:35:05;22.33;;;4.40;;
65737;SDS011;52478;51.844;6.582;2023-10-08T09:37:35;34.92;;;8.15;;
65737;SDS011;52478;51.844;6.582;2023-10-08T09:40:02;38.28;;;7.78;;
65737;SDS011;52478;51.844;6.582;2023-10-08T09:42:33;46.08;;;8.75;;
65737;SDS011;52478;51.844;6.582;2023-10-08T09:45:01;38.13;;;8.27;;
65737;SDS011;52478;51.844;6.582;2023-10-08T09:47:31;31.40;;;7.80;;
65737;SDS011;52478;51.844;6.582;2023-10-08T09:50:03;29.98;;;7.82;;
65737;SDS011;52478;51.844;6.582;2023-10-08T09:52:33;36.55;;;8.43;;
65737;SDS011;52478;51.844;6.582;2023-10-08T09:55:06;32.40;;;7.50;;
65737;SDS011;52478;51.844;6.582;2023-10-08T09:57:35;28.88;;;7.05;;
65737;SDS011;52478;51.844;6.582;2023-10-08T10:00:02;28.95;;;7.53;;
65737;SDS011;52478;51.844;6.582;2023-10-08T10:02:31;33.55;;;7.00;;
65737;SDS011;52478;51.844;6.582;2023-10-08T10:05:00;35.42;;;8.45;;
65737;SDS011;52478;51.844;6.582;2023-10-08T10:07:27;30.38;;;6.57;;
65737;SDS011;52478;51.844;6.582;2023-10-08T10:09:54;24.90;;;6.40;;
65737;SDS011;52478;51.844;6.582;2023-10-08T10:12:24;27.85;;;6.65;;
65737;SDS011;52478;51.844;6.582;2023-10-08T10:14:52;24.20;;;6.57;;
65737;SDS011;52478;51.844;6.582;2023-10-08T10:17:20;22.23;;;6.65;;
65737;SDS011;52478;51.844;6.582;2023-10-08T10:19:50;22.00;;;5.93;;
65737;SDS011;52478;51.844;6.582;2023-10-08T10:22:28;26.88;;;7.22;;
65737;SDS011;52478;51.844;6.582;2023-10-08T10:24:56;26.73;;;6.22;;
65737;SDS011;52478;51.844;6.582;2023-10-08T10:27:25;24.20;;;5.47;;
65737;SDS011;52478;51.844;6.582;2023-10-08T10:29:53;23.33;;;6.20;;
65737;SDS011;52478;51.844;6.582;2023-10-08T10:32:29;23.33;;;6.18;;
65737;SDS011;52478;51.844;6.582;2023-10-08T10:34:56;24.48;;;5.80;;
65737;SDS011;52478;51.844;6.582;2023-10-08T10:37:22;20.65;;;5.40;;
65737;SDS011;52478;51.844;6.582;2023-10-08T10:39:52;20.42;;;5.63;;
65737;SDS011;52478;51.844;6.582;2023-10-08T10:42:20;19.30;;;5.20;;
65737;SDS011;52478;51.844;6.582;2023-10-08T10:44:47;19.20;;;5.65;;
65737;SDS011;52478;51.844;6.582;2023-10-08T10:47:18;19.38;;;5.50;;
65737;SDS011;52478;51.844;6.582;2023-10-08T10:50:07;21.60;;;5.32;;
65737;SDS011;52478;51.844;6.582;2023-10-08T10:52:51;19.45;;;4.68;;
65737;SDS011;52478;51.844;6.582;2023-10-08T10:55:20;20.52;;;5.45;;
65737;SDS011;52478;51.844;6.582;2023-10-08T10:57:47;22.83;;;5.88;;
65737;SDS011;52478;51.844;6.582;2023-10-08T11:00:21;17.70;;;4.82;;
65737;SDS011;52478;51.844;6.582;2023-10-08T11:03:06;16.27;;;4.63;;
65737;SDS011;52478;51.844;6.582;2023-10-08T11:05:41;17.83;;;4.93;;
65737;SDS011;52478;51.844;6.582;2023-10-08T11:08:13;17.58;;;4.90;;
65737;SDS011;52478;51.844;6.582;2023-10-08T11:10:42;16.10;;;4.93;;
65737;SDS011;52478;51.844;6.582;2023-10-08T11:13:14;16.73;;;4.85;;
65737;SDS011;52478;51.844;6.582;2023-10-08T11:15:41;15.95;;;4.50;;
65737;SDS011;52478;51.844;6.582;2023-10-08T11:18:14;23.08;;;5.05;;
65737;SDS011;52478;51.844;6.582;2023-10-08T11:20:41;31.13;;;7.55;;
65737;SDS011;52478;51.844;6.582;2023-10-08T11:23:09;26.75;;;6.35;;
65737;SDS011;52478;51.844;6.582;2023-10-08T11:25:54;29.15;;;7.22;;
65737;SDS011;52478;51.844;6.582;2023-10-08T11:28:25;24.73;;;5.97;;
65737;SDS011;52478;51.844;6.582;2023-10-08T11:30:52;28.95;;;7.32;;
65737;SDS011;52478;51.844;6.582;2023-10-08T11:33:19;26.80;;;5.95;;
65737;SDS011;52478;51.844;6.582;2023-10-08T11:35:56;15.82;;;4.55;;
65737;SDS011;52478;51.844;6.582;2023-10-08T11:38:25;20.25;;;4.10;;
65737;SDS011;52478;51.844;6.582;2023-10-08T11:40:53;9.93;;;2.78;;
65737;SDS011;52478;51.844;6.582;2023-10-08T11:43:22;11.57;;;2.50;;
65737;SDS011;52478;51.844;6.582;2023-10-08T11:45:50;11.00;;;2.10;;
65737;SDS011;52478;51.844;6.582;2023-10-08T11:48:17;9.55;;;2.20;;
65737;SDS011;52478;51.844;6.582;2023-10-08T11:53:17;6.70;;;1.33;;
65737;SDS011;52478;51.844;6.582;2023-10-08T11:55:44;8.27;;;1.80;;
65737;SDS011;52478;51.844;6.582;2023-10-08T11:58:14;6.68;;;1.40;;
65737;SDS011;52478;51.844;6.582;2023-10-08T12:00:45;4.40;;;1.20;;
65737;SDS011;52478;51.844;6.582;2023-10-08T12:03:17;4.25;;;1.10;;
65737;SDS011;52478;51.844;6.582;2023-10-08T12:05:44;4.85;;;1.30;;
65737;SDS011;52478;51.844;6.582;2023-10-08T12:08:13;3.92;;;1.17;;
65737;SDS011;52478;51.844;6.582;2023-10-08T12:10:41;6.13;;;1.20;;
65737;SDS011;52478;51.844;6.582;2023-10-08T12:15:36;6.95;;;1.23;;
65737;SDS011;52478;51.844;6.582;2023-10-08T12:18:04;4.43;;;1.25;;
65737;SDS011;52478;51.844;6.582;2023-10-08T12:20:38;5.85;;;1.60;;
65737;SDS011;52478;51.844;6.582;2023-10-08T12:23:09;5.10;;;1.20;;
65737;SDS011;52478;51.844;6.582;2023-10-08T12:25:36;5.13;;;1.63;;
65737;SDS011;52478;51.844;6.582;2023-10-08T12:28:03;4.95;;;1.45;;
65737;SDS011;52478;51.844;6.582;2023-10-08T12:30:31;5.78;;;1.20;;
65737;SDS011;52478;51.844;6.582;2023-10-08T12:33:07;5.38;;;1.13;;
65737;SDS011;52478;51.844;6.582;2023-10-08T12:35:38;4.50;;;1.00;;
65737;SDS011;52478;51.844;6.582;2023-10-08T12:38:05;5.65;;;1.30;;
65737;SDS011;52478;51.844;6.582;2023-10-08T12:40:33;4.20;;;1.25;;
65737;SDS011;52478;51.844;6.582;2023-10-08T12:43:12;5.07;;;1.30;;
65737;SDS011;52478;51.844;6.582;2023-10-08T12:45:43;4.15;;;1.00;;
65737;SDS011;52478;51.844;6.582;2023-10-08T12:48:12;4.65;;;1.40;;
65737;SDS011;52478;51.844;6.582;2023-10-08T12:50:39;4.30;;;1.10;;
65737;SDS011;52478;51.844;6.582;2023-10-08T12:53:08;5.25;;;1.40;;
65737;SDS011;52478;51.844;6.582;2023-10-08T12:55:36;4.85;;;1.33;;
65737;SDS011;52478;51.844;6.582;2023-10-08T12:58:05;5.65;;;1.20;;
65737;SDS011;52478;51.844;6.582;2023-10-08T13:00:34;7.85;;;1.40;;
65737;SDS011;52478;51.844;6.582;2023-10-08T13:03:04;4.75;;;1.25;;
65737;SDS011;52478;51.844;6.582;2023-10-08T13:05:38;5.68;;;1.70;;
65737;SDS011;52478;51.844;6.582;2023-10-08T13:08:09;6.80;;;1.52;;
65737;SDS011;52478;51.844;6.582;2023-10-08T13:10:38;8.10;;;1.60;;
65737;SDS011;52478;51.844;6.582;2023-10-08T13:13:09;8.23;;;1.90;;
65737;SDS011;52478;51.844;6.582;2023-10-08T13:18:02;7.88;;;1.70;;
65737;SDS011;52478;51.844;6.582;2023-10-08T13:20:29;5.72;;;1.63;;
65737;SDS011;52478;51.844;6.582;2023-10-08T13:22:59;6.88;;;1.60;;
65737;SDS011;52478;51.844;6.582;2023-10-08T13:25:26;5.05;;;1.25;;
65737;SDS011;52478;51.844;6.582;2023-10-08T13:27:52;6.55;;;1.80;;
65737;SDS011;52478;51.844;6.582;2023-10-08T13:30:19;5.85;;;1.50;;
65737;SDS011;52478;51.844;6.582;2023-10-08T13:32:46;6.70;;;1.70;;
65737;SDS011;52478;51.844;6.582;2023-10-08T13:35:13;6.38;;;1.50;;
65737;SDS011;52478;51.844;6.582;2023-10-08T13:37:39;6.53;;;1.50;;
65737;SDS011;52478;51.844;6.582;2023-10-08T13:40:08;6.78;;;1.50;;
65737;SDS011;52478;51.844;6.582;2023-10-08T13:42:40;7.10;;;1.58;;
65737;SDS011;52478;51.844;6.582;2023-10-08T13:47:34;5.50;;;1.38;;
65737;SDS011;52478;51.844;6.582;2023-10-08T13:50:05;5.40;;;1.67;;
65737;SDS011;52478;51.844;6.582;2023-10-08T13:52:35;7.60;;;1.73;;
65737;SDS011;52478;51.844;6.582;2023-10-08T13:55:04;5.30;;;1.52;;
65737;SDS011;52478;51.844;6.582;2023-10-08T13:57:34;6.70;;;1.75;;
65737;SDS011;52478;51.844;6.582;2023-10-08T14:00:00;6.68;;;1.85;;
65737;SDS011;52478;51.844;6.582;2023-10-08T14:02:37;5.80;;;2.10;;
65737;SDS011;52478;51.844;6.582;2023-10-08T14:05:04;7.30;;;2.03;;
65737;SDS011;52478;51.844;6.582;2023-10-08T14:07:34;6.40;;;1.98;;
65737;SDS011;52478;51.844;6.582;2023-10-08T14:12:31;6.45;;;2.10;;
65737;SDS011;52478;51.844;6.582;2023-10-08T14:15:01;6.43;;;1.95;;
65737;SDS011;52478;51.844;6.582;2023-10-08T14:17:31;5.40;;;1.90;;
65737;SDS011;52478;51.844;6.582;2023-10-08T14:20:08;9.73;;;1.88;;
65737;SDS011;52478;51.844;6.582;2023-10-08T14:22:38;5.53;;;1.70;;
65737;SDS011;52478;51.844;6.582;2023-10-08T14:25:06;5.22;;;1.45;;
65737;SDS011;52478;51.844;6.582;2023-10-08T14:27:37;6.40;;;1.70;;
65737;SDS011;52478;51.844;6.582;2023-10-08T14:30:07;6.05;;;1.85;;
65737;SDS011;52478;51.844;6.582;2023-10-08T14:32:40;5.35;;;1.98;;
65737;SDS011;52478;51.844;6.582;2023-10-08T14:35:10;5.85;;;1.65;;
65737;SDS011;52478;51.844;6.582;2023-10-08T14:37:55;5.53;;;1.65;;
65737;SDS011;52478;51.844;6.582;2023-10-08T14:40:39;5.55;;;1.88;;
65737;SDS011;52478;51.844;6.582;2023-10-08T14:43:23;5.88;;;1.80;;
65737;SDS011;52478;51.844;6.582;2023-10-08T14:45:51;5.82;;;1.75;;
65737;SDS011;52478;51.844;6.582;2023-10-08T14:48:18;6.93;;;1.83;;
65737;SDS011;52478;51.844;6.582;2023-10-08T14:50:45;6.35;;;2.22;;
65737;SDS011;52478;51.844;6.582;2023-10-08T14:58:06;7.57;;;1.98;;
65737;SDS011;52478;51.844;6.582;2023-10-08T15:00:34;6.60;;;2.00;;
65737;SDS011;52478;51.844;6.582;2023-10-08T15:03:04;7.65;;;2.00;;
65737;SDS011;52478;51.844;6.582;2023-10-08T15:05:31;6.63;;;1.98;;
65737;SDS011;52478;51.844;6.582;2023-10-08T15:07:57;5.85;;;1.90;;
65737;SDS011;52478;51.844;6.582;2023-10-08T15:10:24;5.90;;;1.90;;
65737;SDS011;52478;51.844;6.582;2023-10-08T15:12:51;7.82;;;1.90;;
65737;SDS011;52478;51.844;6.582;2023-10-08T15:15:18;7.25;;;1.80;;
65737;SDS011;52478;51.844;6.582;2023-10-08T15:17:48;5.43;;;1.88;;
65737;SDS011;52478;51.844;6.582;2023-10-08T15:20:16;5.60;;;1.92;;
65737;SDS011;52478;51.844;6.582;2023-10-08T15:22:45;5.63;;;1.98;;
65737;SDS011;52478;51.844;6.582;2023-10-08T15:25:13;7.07;;;2.08;;
65737;SDS011;52478;51.844;6.582;2023-10-08T15:27:42;4.95;;;2.00;;
65737;SDS011;52478;51.844;6.582;2023-10-08T15:30:11;6.65;;;1.73;;
65737;SDS011;52478;51.844;6.582;2023-10-08T15:32:40;5.60;;;1.60;;